Time;durP1;ratioP1;P1;durP2;ratioP2;P2;SDS_P1;SDS_P2;PMS_P1;PMS_P2;Temp;Humidity;BMP_temperature;BMP_pressure;BME280_temperature;BME280_humidity;BME280_pressure;Samples;Min_cycle;Max_cycle;Signal;HPM_P1;HPM_P2
2022/10/18 00:02:01;;;;;;;;;;;;;;;-142.75;100.00;77696.41;5066761;28;19921;-66
2022/10/18 00:04:26;;;;;;;;;;;;;;;-142.75;100.00;77704.28;5067234;28;20691;-67
2022/10/18 00:06:51;;;;;;;;;;;;;;;-142.75;100.00;77731.88;5066863;28;19916;-66
2022/10/18 00:09:16;;;;;;;;;;;;;;;-142.75;100.00;77733.84;5065828;28;19927;-66
2022/10/18 00:11:41;;;;;;;;;;;;;;;-142.75;100.00;77733.84;5067503;28;19924;-66
2022/10/18 00:14:07;;;;;;;;;;;;;;;-142.75;100.00;77737.78;5064750;28;19932;-66
2022/10/18 00:16:32;;;;;;;;;;;;;;;-142.75;100.00;77735.81;5065228;28;19923;-67
2022/10/18 00:18:57;;;;;;;;;;;;;;;-142.75;100.00;77751.56;5066917;28;19924;-66
2022/10/18 00:21:23;;;;;;;;;;;;;;;-142.75;100.00;77737.78;5065849;28;20019;-66
2022/10/18 00:23:49;;;;;;;;;;;;;;;-142.75;100.00;77729.88;5064638;28;20399;-66
2022/10/18 00:26:16;;;;;;;;;;;;;;;-142.75;100.00;77739.75;5067452;28;20794;-66
2022/10/18 00:28:42;;;;;;;;;;;;;;;-142.75;100.00;77755.50;5065795;28;19973;-66
2022/10/18 00:31:11;;;;;;;;;;;;;;;-142.75;100.00;77763.38;5067348;28;20000;-66
2022/10/18 00:33:37;;;;;;;;;;;;;;;-142.75;100.00;77751.56;5067301;28;19959;-66
2022/10/18 00:36:02;;;;;;;;;;;;;;;-142.75;100.00;77749.59;5070409;28;20190;-67
2022/10/18 00:38:27;;;;;;;;;;;;;;;-142.75;100.00;77755.50;5053400;28;19942;-66
2022/10/18 00:40:52;;;;;;;;;;;;;;;-142.75;100.00;77745.66;5084207;28;20347;-66
2022/10/18 00:43:18;;;;;;;;;;;;;;;-142.75;100.00;77749.59;5076267;28;19960;-66
2022/10/18 00:45:43;;;;;;;;;;;;;;;-142.75;100.00;77751.56;5087518;28;19928;-67
2022/10/18 00:48:09;;;;;;;;;;;;;;;-142.75;100.00;77769.28;5068116;28;19916;-66
2022/10/18 00:50:34;;;;;;;;;;;;;;;-142.75;100.00;77755.50;5072723;28;19926;-66
2022/10/18 00:53:02;;;;;;;;;;;;;;;-142.75;100.00;77751.56;5049673;28;19951;-66
2022/10/18 00:55:27;;;;;;;;;;;;;;;-142.75;100.00;77757.47;5047713;28;20340;-67
2022/10/18 00:57:53;;;;;;;;;;;;;;;-142.75;100.00;77759.44;5066308;28;19916;-66
2022/10/18 01:00:18;;;;;;;;;;;;;;;-142.75;100.00;77763.38;5067108;28;19970;-66
2022/10/18 01:02:44;;;;;;;;;;;;;;;-142.75;100.00;77771.25;5067478;28;19920;-66
2022/10/18 01:05:11;;;;;;;;;;;;;;;-142.75;100.00;77777.16;5067642;28;19921;-66
2022/10/18 01:07:44;;;;;;;;;;;;;;;-142.75;100.00;77787.00;5069339;28;19920;-66
2022/10/18 01:10:12;;;;;;;;;;;;;;;-142.75;100.00;77790.94;5078378;28;20523;-66
2022/10/18 01:12:54;;;;;;;;;;;;;;;-142.75;100.00;77794.88;5085751;28;19920;-66
2022/10/18 01:15:26;;;;;;;;;;;;;;;-142.75;100.00;77802.75;5061810;28;19962;-66
2022/10/18 01:17:55;;;;;;;;;;;;;;;-142.75;100.00;77802.75;5065533;28;20326;-66
2022/10/18 01:20:37;;;;;;;;;;;;;;;-142.75;100.00;77818.50;5065318;28;19958;-66
2022/10/18 01:23:21;;;;;;;;;;;;;;;-142.75;100.00;77806.69;5066025;28;19916;-66
2022/10/18 01:25:49;;;;;;;;;;;;;;;-142.75;100.00;77802.75;5065097;28;19928;-66
2022/10/18 01:28:24;;;;;;;;;;;;;;;-142.75;100.00;77820.47;5047701;28;19916;-66
2022/10/18 01:31:00;;;;;;;;;;;;;;;-142.75;100.00;77816.53;5066497;28;19961;-66
2022/10/18 01:33:31;;;;;;;;;;;;;;;-142.75;100.00;77810.63;5055611;28;19924;-66
2022/10/18 01:36:03;;;;;;;;;;;;;;;-142.75;100.00;77810.63;5066322;28;19993;-66
2022/10/18 01:38:30;;;;;;;;;;;;;;;-142.75;100.00;77824.41;5065650;28;19920;-66
2022/10/18 01:40:55;;;;;;;;;;;;;;;-142.75;100.00;77846.06;5067388;28;19916;-65
2022/10/18 01:43:22;;;;;;;;;;;;;;;-142.75;100.00;77859.84;5064987;28;19924;-66
2022/10/18 01:45:48;;;;;;;;;;;;;;;-142.75;100.00;77889.38;5067525;28;19925;-66
2022/10/18 01:48:13;;;;;;;;;;;;;;;-142.75;100.00;77885.44;5066525;28;19916;-66
2022/10/18 01:50:38;;;;;;;;;;;;;;;-142.75;100.00;77909.06;5066867;28;20097;-65
2022/10/18 01:53:04;;;;;;;;;;;;;;;-142.75;100.00;77924.84;5068151;28;19924;-66
2022/10/18 01:55:36;;;;;;;;;;;;;;;-142.75;100.00;77938.63;5070108;28;19926;-66
2022/10/18 01:58:07;;;;;;;;;;;;;;;-142.75;100.00;77940.59;5070118;28;21219;-66
2022/10/18 02:00:40;;;;;;;;;;;;;;;-142.75;100.00;77956.34;5090245;28;19917;-67
2022/10/18 02:03:14;;;;;;;;;;;;;;;-142.75;100.00;77942.56;5090795;28;20393;-65
2022/10/18 02:05:49;;;;;;;;;;;;;;;-142.75;100.00;77948.47;5088263;28;20659;-66
2022/10/18 02:08:34;;;;;;;;;;;;;;;-142.75;100.00;77928.78;5068939;28;19916;-66
2022/10/18 02:11:01;;;;;;;;;;;;;;;-142.75;100.00;77924.84;5067397;28;20565;-66
2022/10/18 02:13:28;;;;;;;;;;;;;;;-142.75;100.00;77920.91;5063803;28;20471;-66
2022/10/18 02:15:56;;;;;;;;;;;;;;;-142.75;100.00;77920.91;5063684;28;19969;-66
2022/10/18 02:18:28;;;;;;;;;;;;;;;-142.75;100.00;77924.84;5065091;28;20091;-66
2022/10/18 02:20:54;;;;;;;;;;;;;;;-142.75;100.00;77911.06;5045288;28;19920;-66
2022/10/18 02:23:21;;;;;;;;;;;;;;;-142.75;100.00;77901.19;5047169;28;19924;-67
2022/10/18 02:25:47;;;;;;;;;;;;;;;-142.75;100.00;77897.25;5063937;28;19959;-66
2022/10/18 02:28:12;;;;;;;;;;;;;;;-142.75;100.00;77899.22;5061584;28;19920;-66
2022/10/18 02:30:46;;;;;;;;;;;;;;;-142.75;100.00;77889.38;5063449;28;20003;-66
2022/10/18 02:33:16;;;;;;;;;;;;;;;-142.75;100.00;77887.41;5062257;28;20371;-67
2022/10/18 02:35:47;;;;;;;;;;;;;;;-142.75;100.00;77885.44;5063901;28;19975;-66
2022/10/18 02:38:13;;;;;;;;;;;;;;;-142.75;100.00;77889.38;5063048;28;19931;-66
2022/10/18 02:40:38;;;;;;;;;;;;;;;-142.75;100.00;77901.19;5064541;28;20449;-66
2022/10/18 02:43:04;;;;;;;;;;;;;;;-142.75;100.00;77887.41;5063574;28;20047;-66
2022/10/18 02:45:29;;;;;;;;;;;;;;;-142.75;100.00;77885.44;5064462;28;19931;-66
2022/10/18 02:47:54;;;;;;;;;;;;;;;-142.75;100.00;77887.41;5062440;28;20397;-66
2022/10/18 02:50:19;;;;;;;;;;;;;;;-142.75;100.00;77885.44;5064658;28;19920;-66
2022/10/18 02:52:45;;;;;;;;;;;;;;;-142.75;100.00;77885.44;5063450;28;19971;-66
2022/10/18 02:55:10;;;;;;;;;;;;;;;-142.75;100.00;77891.34;5063056;28;20019;-66
2022/10/18 02:57:35;;;;;;;;;;;;;;;-142.75;100.00;77875.59;5062308;28;19960;-66
2022/10/18 03:00:01;;;;;;;;;;;;;;;-142.75;100.00;77865.75;5065346;28;19916;-66
2022/10/18 03:02:26;;;;;;;;;;;;;;;-142.75;100.00;77859.84;5045245;28;20050;-66
2022/10/18 03:04:51;;;;;;;;;;;;;;;-142.75;100.00;77857.88;5061401;28;19924;-66
2022/10/18 03:07:16;;;;;;;;;;;;;;;-142.75;100.00;77855.91;5063333;28;19981;-66
2022/10/18 03:09:41;;;;;;;;;;;;;;;-142.75;100.00;77865.75;5045227;28;19920;-66
2022/10/18 03:12:07;;;;;;;;;;;;;;;-142.75;100.00;77853.94;5063101;28;19921;-66
2022/10/18 03:14:32;;;;;;;;;;;;;;;-142.75;100.00;77857.88;5061524;28;20397;-67
2022/10/18 03:16:57;;;;;;;;;;;;;;;-142.75;100.00;77871.66;5062482;28;20520;-66
2022/10/18 03:19:22;;;;;;;;;;;;;;;-142.75;100.00;77883.47;5063062;28;19931;-66
2022/10/18 03:21:48;;;;;;;;;;;;;;;-142.75;100.00;77895.28;5062451;28;20491;-66
2022/10/18 03:24:13;;;;;;;;;;;;;;;-142.75;100.00;77891.34;5062728;28;20023;-66
2022/10/18 03:26:38;;;;;;;;;;;;;;;-142.75;100.00;77901.19;5063589;28;19974;-66
2022/10/18 03:29:03;;;;;;;;;;;;;;;-142.75;100.00;77913.03;5063987;28;20003;-66
2022/10/18 03:31:29;;;;;;;;;;;;;;;-142.75;100.00;77936.66;5063599;28;19922;-66
2022/10/18 03:33:54;;;;;;;;;;;;;;;-142.75;100.00;77946.50;5062843;28;19990;-66
2022/10/18 03:36:19;;;;;;;;;;;;;;;-142.75;100.00;77958.31;5063223;28;20031;-66
2022/10/18 03:38:44;;;;;;;;;;;;;;;-142.75;100.00;77970.13;5062019;28;19920;-65
2022/10/18 03:41:10;;;;;;;;;;;;;;;-142.75;100.00;77983.91;5062509;28;19924;-66
2022/10/18 03:43:35;;;;;;;;;;;;;;;-142.75;100.00;77997.69;5062056;28;20011;-66
2022/10/18 03:46:00;;;;;;;;;;;;;;;-142.75;100.00;78005.56;5061342;28;19927;-66
2022/10/18 03:48:25;;;;;;;;;;;;;;;-142.75;100.00;77987.84;5061962;28;19927;-66
2022/10/18 03:50:51;;;;;;;;;;;;;;;-142.75;100.00;77991.78;5062215;28;20382;-67
2022/10/18 03:53:16;;;;;;;;;;;;;;;-142.75;100.00;77993.75;5062726;28;20294;-66
2022/10/18 03:55:41;;;;;;;;;;;;;;;-142.75;100.00;77991.78;5059546;28;19968;-66
2022/10/18 03:58:06;;;;;;;;;;;;;;;-142.75;100.00;77991.78;5061093;28;19924;-66
2022/10/18 04:00:32;;;;;;;;;;;;;;;-142.75;100.00;77991.78;5062070;28;19924;-66
2022/10/18 04:02:57;;;;;;;;;;;;;;;-142.75;100.00;77995.72;5064064;28;20020;-66
2022/10/18 04:05:23;;;;;;;;;;;;;;;-142.75;100.00;77995.72;5060475;28;19973;-67
2022/10/18 04:07:48;;;;;;;;;;;;;;;-142.75;100.00;77987.84;5062755;28;20456;-66
2022/10/18 04:10:13;;;;;;;;;;;;;;;-142.75;100.00;77979.97;5061166;28;19917;-66
2022/10/18 04:12:38;;;;;;;;;;;;;;;-142.75;100.00;77985.88;5061903;28;19916;-67
2022/10/18 04:15:04;;;;;;;;;;;;;;;-142.75;100.00;77976.03;5061277;28;19979;-66
2022/10/18 04:17:29;;;;;;;;;;;;;;;-142.75;100.00;77981.94;5060731;28;19986;-66
2022/10/18 04:19:54;;;;;;;;;;;;;;;-142.75;100.00;77974.06;5061151;28;19916;-66
2022/10/18 04:22:20;;;;;;;;;;;;;;;-142.75;100.00;77970.13;5063124;28;20893;-66
2022/10/18 04:24:45;;;;;;;;;;;;;;;-142.75;100.00;77960.28;5059316;28;20275;-67
2022/10/18 04:27:10;;;;;;;;;;;;;;;-142.75;100.00;77960.28;5063605;28;20404;-65
2022/10/18 04:29:35;;;;;;;;;;;;;;;-142.75;100.00;77960.28;5063487;28;20373;-66
2022/10/18 04:32:01;;;;;;;;;;;;;;;-142.75;100.00;77960.28;5063950;28;20295;-67
2022/10/18 04:34:26;;;;;;;;;;;;;;;-142.75;100.00;77950.44;5063656;28;19923;-66
2022/10/18 04:36:51;;;;;;;;;;;;;;;-142.75;100.00;77950.44;5061963;28;19973;-67
2022/10/18 04:39:16;;;;;;;;;;;;;;;-142.75;100.00;77968.16;5061431;28;19927;-66
2022/10/18 04:41:42;;;;;;;;;;;;;;;-142.75;100.00;77979.97;5063451;28;20141;-66
2022/10/18 04:44:07;;;;;;;;;;;;;;;-142.75;100.00;77974.06;5063752;28;20370;-66
2022/10/18 04:46:32;;;;;;;;;;;;;;;-142.75;100.00;77979.97;5046288;28;19928;-66
2022/10/18 04:49:00;;;;;;;;;;;;;;;-142.75;100.00;77978.00;5046281;28;19916;-66
2022/10/18 04:51:25;;;;;;;;;;;;;;;-142.75;100.00;77983.91;5061144;28;19968;-67
2022/10/18 04:53:50;;;;;;;;;;;;;;;-142.75;100.00;77981.94;5063203;28;19959;-66
2022/10/18 04:56:15;;;;;;;;;;;;;;;-142.75;100.00;77976.03;5063356;28;19921;-66
2022/10/18 04:58:40;;;;;;;;;;;;;;;-142.75;100.00;77991.78;5063161;28;20389;-66
2022/10/18 05:01:06;;;;;;;;;;;;;;;-142.75;100.00;77987.84;5063337;28;19917;-65
2022/10/18 05:03:31;;;;;;;;;;;;;;;-142.75;100.00;77987.84;5063273;28;19971;-66
2022/10/18 05:05:57;;;;;;;;;;;;;;;-142.75;100.00;77989.81;5064762;28;19931;-65
2022/10/18 05:08:22;;;;;;;;;;;;;;;-142.75;100.00;77987.84;5062957;28;19920;-66
2022/10/18 05:10:47;;;;;;;;;;;;;;;-142.75;100.00;77993.75;5064639;28;20514;-66
2022/10/18 05:13:12;;;;;;;;;;;;;;;-142.75;100.00;78023.28;5062827;28;20314;-66
2022/10/18 05:15:37;;;;;;;;;;;;;;;-142.75;100.00;78019.34;5062956;28;20294;-67
2022/10/18 05:18:03;;;;;;;;;;;;;;;-142.75;100.00;78015.41;5062805;28;19999;-66
2022/10/18 05:20:28;;;;;;;;;;;;;;;-142.75;100.00;78019.34;5063854;28;19972;-65
2022/10/18 05:22:53;;;;;;;;;;;;;;;-142.75;100.00;78015.41;5062190;28;19962;-66
2022/10/18 05:25:18;;;;;;;;;;;;;;;-142.75;100.00;78015.41;5062363;28;20278;-66
2022/10/18 05:27:43;;;;;;;;;;;;;;;-142.75;100.00;78013.44;5060127;28;19994;-66
2022/10/18 05:30:09;;;;;;;;;;;;;;;-142.75;100.00;78015.41;5064398;28;20003;-66
2022/10/18 05:32:34;;;;;;;;;;;;;;;-142.75;100.00;78017.38;5062507;28;19920;-66
2022/10/18 05:34:59;;;;;;;;;;;;;;;-142.75;100.00;78041.00;5116857;22;19928;-66
2022/10/18 05:37:24;;;;;;;;;;;;;;;-142.75;100.00;78042.97;5099855;28;19916;-67
2022/10/18 05:39:50;;;;;;;;;;;;;;;-142.75;100.00;78042.97;5106484;28;19916;-67
2022/10/18 05:42:15;;;;;;;;;;;;;;;-142.75;100.00;78042.97;5111176;28;19919;-68
2022/10/18 05:44:40;;;;;;;;;;;;;;;-142.75;100.00;78039.03;5112665;28;19911;-68
2022/10/18 05:47:05;;;;;;;;;;;;;;;-142.75;100.00;78037.06;5107356;28;19912;-69
2022/10/18 05:49:30;;;;;;;;;;;;;;;-142.75;100.00;78039.03;5104126;28;19943;-70
2022/10/18 05:51:55;;;;;;;;;;;;;;;-142.75;100.00;78044.94;5111338;28;19999;-69
2022/10/18 05:54:21;;;;;;;;;;;;;;;-142.75;100.00;78084.34;5111176;28;20007;-69
2022/10/18 05:56:46;;;;;;;;;;;;;;;-142.75;100.00;78102.06;5112305;28;20380;-69
2022/10/18 05:59:11;;;;;;;;;;;;;;;-142.75;100.00;78125.69;5112551;28;19911;-69
2022/10/18 06:01:37;;;;;;;;;;;;;;;-142.75;100.00;78139.47;5112554;28;19911;-69
2022/10/18 06:04:02;;;;;;;;;;;;;;;-142.75;100.00;78135.53;5111195;28;19916;-69
2022/10/18 06:06:27;;;;;;;;;;;;;;;-142.75;100.00;78151.28;5097435;28;19931;-68
2022/10/18 06:08:52;;;;;;;;;;;;;;;-142.75;100.00;78172.94;5102353;28;20270;-69
2022/10/18 06:11:18;;;;;;;;;;;;;;;-142.75;100.00;78188.72;5112372;28;19911;-70
2022/10/18 06:13:45;;;;;;;;;;;;;;;-142.75;100.00;78206.44;5111116;28;20007;-68
2022/10/18 06:16:11;;;;;;;;;;;;;;;-142.75;100.00;78204.47;5112382;28;19912;-69
2022/10/18 06:18:36;;;;;;;;;;;;;;;-142.75;100.00;78208.41;5112103;28;19935;-70
2022/10/18 06:21:02;;;;;;;;;;;;;;;-142.75;100.00;78200.53;5111087;28;19999;-68
2022/10/18 06:23:27;;;;;;;;;;;;;;;-142.75;100.00;78212.34;5110774;28;20395;-69
2022/10/18 06:25:52;;;;;;;;;;;;;;;-142.75;100.00;78235.97;5112292;28;19916;-69
2022/10/18 06:28:18;;;;;;;;;;;;;;;-142.75;100.00;78253.69;5112010;28;19984;-69
2022/10/18 06:30:43;;;;;;;;;;;;;;;-142.75;100.00;78279.28;5112266;28;19918;-70
2022/10/18 06:33:10;;;;;;;;;;;;;;;-142.75;100.00;78285.19;5112283;28;19912;-67
2022/10/18 06:35:35;;;;;;;;;;;;;;;-142.75;100.00;78312.78;5112049;28;20337;-69
2022/10/18 06:38:01;;;;;;;;;;;;;;;-142.75;100.00;78324.59;5111873;28;19951;-69
2022/10/18 06:40:26;;;;;;;;;;;;;;;-142.75;100.00;78322.63;5114676;28;19945;-69
2022/10/18 06:42:51;;;;;;;;;;;;;;;-142.75;100.00;78338.38;5115942;28;19922;-69
2022/10/18 06:45:17;;;;;;;;;;;;;;;-142.75;100.00;78324.59;5115875;28;19912;-69
2022/10/18 06:47:42;;;;;;;;;;;;;;;-142.75;100.00;78320.66;5115962;28;19919;-69
2022/10/18 06:50:08;;;;;;;;;;;;;;;-142.75;100.00;78308.84;5115863;28;19972;-69
2022/10/18 06:52:33;;;;;;;;;;;;;;;-142.75;100.00;78308.84;5107129;28;19919;-69
2022/10/18 06:54:58;;;;;;;;;;;;;;;-142.75;100.00;78287.16;5107058;28;20290;-69
2022/10/18 06:57:23;;;;;;;;;;;;;;;-142.75;100.00;78279.28;5115430;28;19958;-69
2022/10/18 06:59:50;;;;;;;;;;;;;;;-142.75;100.00;78251.72;5115676;28;19912;-69
2022/10/18 07:02:18;;;;;;;;;;;;;;;-142.75;100.00;78218.25;5115621;28;20533;-69
2022/10/18 07:04:43;;;;;;;;;;;;;;;-142.75;100.00;78212.34;5115497;28;19915;-69
2022/10/18 07:07:09;;;;;;;;;;;;;;;-142.75;100.00;78208.41;5115165;28;20274;-69
2022/10/18 07:09:34;;;;;;;;;;;;;;;-142.75;100.00;78184.78;5115469;28;19958;-69
2022/10/18 07:11:59;;;;;;;;;;;;;;;-142.75;100.00;78155.22;5093966;28;19912;-70
2022/10/18 07:14:24;;;;;;;;;;;;;;;-142.75;100.00;78137.50;5093417;28;19923;-69
2022/10/18 07:16:50;;;;;;;;;;;;;;;-142.75;100.00;78098.13;5106426;28;20003;-70
2022/10/18 07:19:15;;;;;;;;;;;;;;;-142.75;100.00;78058.72;5115303;28;19954;-70
2022/10/18 07:21:40;;;;;;;;;;;;;;;-142.75;100.00;78025.25;5086633;28;19920;-69
2022/10/18 07:24:05;;;;;;;;;;;;;;;-142.75;100.00;78011.47;5098429;28;19955;-70
2022/10/18 07:26:31;;;;;;;;;;;;;;;-142.75;100.00;77968.16;5100844;28;19965;-68
2022/10/18 07:29:03;;;;;;;;;;;;;;;-142.75;100.00;77920.91;5106360;28;20501;-69
2022/10/18 07:31:28;;;;;;;;;;;;;;;-142.75;100.00;77881.50;5112790;28;19920;-70
2022/10/18 07:33:54;;;;;;;;;;;;;;;-142.75;100.00;77846.06;5106207;28;20430;-70
2022/10/18 07:36:20;;;;;;;;;;;;;;;-142.75;100.00;77810.63;5111830;28;19917;-70
2022/10/18 07:38:46;;;;;;;;;;;;;;;-142.75;100.00;77751.56;5104711;28;19912;-70
2022/10/18 07:41:12;;;;;;;;;;;;;;;-142.75;100.00;77714.13;5101006;28;19923;-70
2022/10/18 07:43:40;;;;;;;;;;;;;;;-142.75;100.00;77672.78;5076746;28;19952;-70
2022/10/18 07:46:05;;;;;;;;;;;;;;;-142.75;100.00;77657.03;5074128;28;20393;-70
2022/10/18 07:48:30;;;;;;;;;;;;;;;-142.75;100.00;77649.16;5073883;28;19913;-70
2022/10/18 07:50:59;;;;;;;;;;;;;;;-142.75;100.00;77621.59;5072003;28;20308;-70
2022/10/18 07:53:25;;;;;;;;;;;;;;;-142.75;100.00;77609.78;5073927;28;19956;-70
2022/10/18 07:55:50;;;;;;;;;;;;;;;-142.75;100.00;77590.09;5075457;28;20017;-70
2022/10/18 07:58:15;;;;;;;;;;;;;;;-142.75;100.00;77623.56;5105913;28;19918;-70
2022/10/18 08:00:40;;;;;;;;;;;;;;;-142.75;100.00;77596.00;5087867;28;19920;-69
2022/10/18 08:03:05;;;;;;;;;;;;;;;-142.75;100.00;77627.50;5099787;28;19969;-68
2022/10/18 08:05:31;;;;;;;;;;;;;;;-142.75;100.00;77629.47;5089677;28;20365;-69
2022/10/18 08:07:57;;;;;;;;;;;;;;;-142.75;100.00;77619.63;5092891;28;19966;-65
2022/10/18 08:10:25;;;;;;;;;;;;;;;-142.75;100.00;77605.84;5077184;28;19916;-70
2022/10/18 08:12:50;;;;;;;;;;;;;;;-142.75;100.00;77576.31;5081112;28;20279;-69
2022/10/18 08:15:16;;;;;;;;;;;;;;;-142.75;100.00;77570.41;5077486;28;19916;-70
2022/10/18 08:17:42;;;;;;;;;;;;;;;-142.75;100.00;77527.09;5087090;28;19912;-70
2022/10/18 08:20:07;;;;;;;;;;;;;;;-142.75;100.00;77479.84;5075965;28;19912;-70
2022/10/18 08:22:33;;;;;;;;;;;;;;;-142.75;100.00;77430.59;5077352;28;19912;-70
2022/10/18 08:24:58;;;;;;;;;;;;;;;-142.75;100.00;77416.81;5075596;28;19928;-68
2022/10/18 08:27:25;;;;;;;;;;;;;;;-142.75;100.00;77385.31;5086236;28;19919;-71
2022/10/18 08:29:50;;;;;;;;;;;;;;;-142.75;100.00;77397.13;5076108;28;19924;-70
2022/10/18 08:32:15;;;;;;;;;;;;;;;-142.75;100.00;77389.25;5077010;28;19920;-68
2022/10/18 08:34:40;;;;;;;;;;;;;;;-142.75;100.00;77399.09;5087018;28;21496;-70
2022/10/18 08:37:05;;;;;;;;;;;;;;;-142.75;100.00;77426.66;5077548;28;19965;-69
2022/10/18 08:39:31;;;;;;;;;;;;;;;-142.75;100.00;77406.97;5077022;28;19912;-70
2022/10/18 08:41:59;;;;;;;;;;;;;;;-142.75;100.00;77338.06;5073353;28;19962;-70
2022/10/18 08:44:29;;;;;;;;;;;;;;;-142.75;100.00;77314.44;5079953;28;19917;-69
2022/10/18 08:46:57;;;;;;;;;;;;;;;-142.75;100.00;77300.66;5076269;28;20301;-70
2022/10/18 08:49:28;;;;;;;;;;;;;;;-142.75;100.00;77259.31;5079600;28;20421;-69
2022/10/18 08:51:55;;;;;;;;;;;;;;;-142.75;100.00;77253.41;5083602;28;19916;-69
2022/10/18 08:54:36;;;;;;;;;;;;;;;-142.75;100.00;77235.69;5086869;28;19944;-69
2022/10/18 08:57:03;;;;;;;;;;;;;;;-142.75;100.00;77208.13;5078581;28;19912;-70
2022/10/18 08:59:32;;;;;;;;;;;;;;;-142.75;100.00;77251.44;5082938;28;20442;-69
2022/10/18 09:02:15;;;;;;;;;;;;;;;-142.75;100.00;77219.94;5085975;28;19912;-70
2022/10/18 09:04:46;;;;;;;;;;;;;;;-142.75;100.00;77206.16;5080032;28;19916;-70
2022/10/18 09:07:11;;;;;;;;;;;;;;;-142.75;100.00;77198.28;5081777;28;19919;-69
2022/10/18 09:09:39;;;;;;;;;;;;;;;-142.75;100.00;77174.66;5082619;28;20011;-70
2022/10/18 09:12:14;;;;;;;;;;;;;;;-142.75;100.00;77139.22;5081059;28;19916;-70
2022/10/18 09:14:47;;;;;;;;;;;;;;;-142.75;100.00;77141.19;5081339;28;20344;-70
2022/10/18 09:17:31;;;;;;;;;;;;;;;-142.75;100.00;77153.00;5081747;28;19912;-69
2022/10/18 09:20:02;;;;;;;;;;;;;;;-142.75;100.00;77107.72;5082403;28;19912;-70
2022/10/18 09:22:45;;;;;;;;;;;;;;;-142.75;100.00;77088.03;5072213;28;19913;-70
2022/10/18 09:25:18;;;;;;;;;;;;;;;-142.75;100.00;77091.97;5072582;28;19965;-70
2022/10/18 09:27:44;;;;;;;;;;;;;;;-142.75;100.00;77090.00;5072128;28;20034;-70
2022/10/18 09:30:18;;;;;;;;;;;;;;;-142.75;100.00;77115.59;5072357;28;19948;-69
2022/10/18 09:32:55;;;;;;;;;;;;;;;-142.75;100.00;77113.63;5072357;28;20335;-69
2022/10/18 09:35:26;;;;;;;;;;;;;;;-142.75;100.00;77097.88;5072076;28;20339;-70
2022/10/18 09:37:54;;;;;;;;;;;;;;;-142.75;100.00;77078.19;5072021;28;20279;-70
2022/10/18 09:40:23;;;;;;;;;;;;;;;-142.75;100.00;77052.59;5072249;28;20100;-70
2022/10/18 09:43:15;;;;;;;;;;;;;;;-142.75;100.00;77034.88;5072111;28;19920;-69
2022/10/18 09:45:41;;;;;;;;;;;;;;;-142.75;100.00;77015.19;5084372;28;19912;-70
2022/10/18 09:48:17;;;;;;;;;;;;;;;-142.75;100.00;77036.84;5071831;28;19912;-70
2022/10/18 09:50:44;;;;;;;;;;;;;;;-142.75;100.00;77030.94;5072089;28;20439;-69
2022/10/18 09:53:10;;;;;;;;;;;;;;;-142.75;100.00;77027.00;5071961;28;19912;-71
2022/10/18 09:55:41;;;;;;;;;;;;;;;-142.75;100.00;77019.13;5072000;28;19944;-70
2022/10/18 09:58:06;;;;;;;;;;;;;;;-142.75;100.00;76985.66;5071673;28;19956;-70
2022/10/18 10:00:33;;;;;;;;;;;;;;;-142.75;100.00;76960.06;5072043;28;19935;-70
2022/10/18 10:03:00;;;;;;;;;;;;;;;-142.75;100.00;76989.59;5073870;28;19980;-70
2022/10/18 10:05:25;;;;;;;;;;;;;;;-142.75;100.00;76975.81;5082838;28;19913;-70
2022/10/18 10:07:56;;;;;;;;;;;;;;;-142.75;100.00;76971.88;5091742;28;19945;-70
2022/10/18 10:10:21;;;;;;;;;;;;;;;-142.75;100.00;76975.81;5089516;28;20301;-70
2022/10/18 10:12:47;;;;;;;;;;;;;;;-142.75;100.00;76936.44;5082791;28;19913;-70
2022/10/18 10:15:17;;;;;;;;;;;;;;;-142.75;100.00;76944.31;5095218;28;19919;-70
2022/10/18 10:17:43;;;;;;;;;;;;;;;-142.75;100.00;76944.31;5087844;28;19916;-69
2022/10/18 10:20:17;;;;;;;;;;;;;;;-142.75;100.00;76944.31;5086070;28;19923;-68
2022/10/18 10:22:44;;;;;;;;;;;;;;;-142.75;100.00;76928.56;5092647;28;19920;-70
2022/10/18 10:25:29;;;;;;;;;;;;;;;-142.75;100.00;76944.31;5084236;28;19916;-69
2022/10/18 10:27:55;;;;;;;;;;;;;;;-142.75;100.00;76936.44;5084792;28;20378;-70
2022/10/18 10:30:22;;;;;;;;;;;;;;;-142.75;100.00;76912.81;5081835;28;19923;-69
2022/10/18 10:32:49;;;;;;;;;;;;;;;-142.75;100.00;76891.16;5083810;28;20019;-69
2022/10/18 10:35:21;;;;;;;;;;;;;;;-142.75;100.00;76895.09;5085600;28;19928;-68
2022/10/18 10:37:50;;;;;;;;;;;;;;;-142.75;100.00;76834.06;5095162;28;20301;-70
2022/10/18 10:40:17;;;;;;;;;;;;;;;-142.75;95.71;76818.31;5088384;28;19924;-70
2022/10/18 10:42:56;;;;;;;;;;;;;;;-142.75;90.35;76806.50;5095425;28;19920;-70
2022/10/18 10:45:22;;;;;;;;;;;;;;;-142.75;89.01;76761.25;5084874;28;20348;-70
2022/10/18 10:47:48;;;;;;;;;;;;;;;-142.75;84.73;76715.97;5083668;28;19919;-70
2022/10/18 10:50:22;;;;;;;;;;;;;;;-142.75;84.81;76723.84;5085705;28;19912;-71
2022/10/18 10:52:47;;;;;;;;;;;;;;;-142.75;83.42;76692.34;5083624;28;19962;-72
2022/10/18 10:55:18;;;;;;;;;;;;;;;-142.75;77.48;76649.03;5085017;28;19949;-69
2022/10/18 10:57:44;;;;;;;;;;;;;;;-142.75;74.78;76643.13;5082487;28;20012;-69
2022/10/18 11:00:30;;;;;;;;;;;;;;;-142.75;75.30;76619.50;5078167;28;19919;-69
2022/10/18 11:03:04;;;;;;;;;;;;;;;-142.75;75.25;76629.34;5084337;28;19952;-67
2022/10/18 11:05:29;;;;;;;;;;;;;;;-142.75;78.57;76676.59;5080781;28;20023;-69
2022/10/18 11:07:57;;;;;;;;;;;;;;;-142.75;80.70;76702.19;5078598;28;20410;-68
2022/10/18 11:10:23;;;;;;;;;;;;;;;-142.75;78.83;76672.66;5083375;28;20050;-70
2022/10/18 11:12:51;;;;;;;;;;;;;;;-142.75;76.67;76704.16;5089350;28;20414;-69
2022/10/18 11:15:24;;;;;;;;;;;;;;;-142.75;77.50;76692.34;5079697;28;19916;-69
2022/10/18 11:18:01;;;;;;;;;;;;;;;-142.75;75.35;76706.13;5073814;28;19923;-69
2022/10/18 11:20:30;;;;;;;;;;;;;;;-142.75;76.23;76700.22;5092200;28;19916;-68
2022/10/18 11:22:56;;;;;;;;;;;;;;;-142.75;77.20;76747.47;5092051;28;20392;-69
2022/10/18 11:25:23;;;;;;;;;;;;;;;-142.75;78.42;76717.94;5092315;28;19912;-70
2022/10/18 11:27:56;;;;;;;;;;;;;;;-142.75;78.08;76723.84;5083836;28;19916;-68
2022/10/18 11:30:21;;;;;;;;;;;;;;;-142.75;75.77;76712.03;5084677;28;19924;-69
2022/10/18 11:32:53;;;;;;;;;;;;;;;-142.75;78.59;76723.84;5084562;28;19913;-70
2022/10/18 11:35:33;;;;;;;;;;;;;;;-142.75;74.99;76714.00;5096739;22;19979;-64
2022/10/18 11:38:18;;;;;;;;;;;;;;;-142.75;74.26;76696.28;5080349;28;20448;-65
2022/10/18 11:40:56;;;;;;;;;;;;;;;-142.75;72.24;76684.47;5044725;28;19984;-65
2022/10/18 11:43:24;;;;;;;;;;;;;;;-142.75;71.64;76690.38;5085422;28;20360;-65
2022/10/18 11:45:55;;;;;;;;;;;;;;;-142.75;71.24;76692.34;5073455;28;20326;-64
2022/10/18 11:48:26;;;;;;;;;;;;;;;-142.75;71.09;76714.00;5073540;28;19965;-64
2022/10/18 11:51:04;;;;;;;;;;;;;;;-142.75;71.01;76727.78;5073612;28;19924;-64
2022/10/18 11:53:48;;;;;;;;;;;;;;;-142.75;70.31;76684.47;5073691;28;20310;-64
2022/10/18 11:56:29;;;;;;;;;;;;;;;-142.75;68.77;76676.59;5073612;28;19970;-65
2022/10/18 11:59:00;;;;;;;;;;;;;;;-142.75;69.87;76664.78;5073462;28;20011;-64
2022/10/18 12:01:44;;;;;;;;;;;;;;;-142.75;67.79;76641.16;5073276;28;19916;-64
2022/10/18 12:04:09;;;;;;;;;;;;;;;-142.75;68.82;76627.38;5073430;28;19920;-64
2022/10/18 12:06:36;;;;;;;;;;;;;;;-142.75;67.20;76641.16;5073242;28;19912;-64
2022/10/18 12:09:06;;;;;;;;;;;;;;;-142.75;67.38;76637.22;5073459;28;19920;-64
2022/10/18 12:11:35;;;;;;;;;;;;;;;-142.75;65.81;76674.63;5072581;28;19916;-64
2022/10/18 12:14:06;;;;;;;;;;;;;;;-142.75;66.08;76643.13;5055117;28;20394;-64
2022/10/18 12:16:35;;;;;;;;;;;;;;;-142.75;67.29;76601.78;5071153;28;20015;-65
2022/10/18 12:19:03;;;;;;;;;;;;;;;-142.75;66.30;76658.88;5072945;28;19912;-64
2022/10/18 12:21:30;;;;;;;;;;;;;;;-142.75;66.27;76649.03;5073087;28;19948;-64